Peace — WBF3649 — position and weather

sailwx.info

Track history (hours):
 
Tides and Currents Weather Stations Pressure Air Temp Water Temp Dewpoint Dewpoint Depression Visibility Wind Speed Wind Dir Waves Ship Positions

Peace

Owner: BOWMAN, ERIC L, VENTURA, CA. More information available from US FCC via Universal Licensing System and Coast Guard Vessel Documentation Center.

Last reported at 2017-Dec-11 16:59 UTC. Time now 2017-Dec-14 02:41 UTC.
Position N 34°00' W 119°26'.

Length 20 m.

Type: Diving. MMSI: 367166830.

Date/timePositionNaut miles runAvg speedWind from/ knotsBaromVisibWave heightAir tempDewpointWater temp
2017-Dec-11 16:59N 34°00' W 119°26'3 6.9
2017-Dec-11 16:30N 34°04' W 119°25'5 9.5
2017-Dec-11 16:00N 34°08' W 119°22'5 9.3
2017-Dec-11 15:29N 34°12' W 119°19'4 8.3
2017-Dec-11 15:00N 34°15' W 119°16'0 0.5
2017-Dec-11 14:25N 34°15' W 119°16'0 0.0
2017-Dec-11 13:58N 34°15' W 119°16'0 0.0
2017-Dec-11 13:28N 34°15' W 119°16'0 0.0
2017-Dec-11 12:58N 34°15' W 119°16'0 0.0
2017-Dec-11 12:28N 34°15' W 119°16'0 0.0
2017-Dec-11 11:58N 34°15' W 119°16'0 0.0
2017-Dec-11 11:28N 34°15' W 119°16'0 0.0
2017-Dec-11 10:58N 34°15' W 119°16'0 0.0
2017-Dec-11 10:28N 34°15' W 119°16'0 0.0
2017-Dec-11 09:58N 34°15' W 119°16'0 0.0
2017-Dec-11 09:28N 34°15' W 119°16'0 0.0
2017-Dec-11 08:58N 34°15' W 119°16'0 0.0
2017-Dec-11 08:28N 34°15' W 119°16'0 0.0
2017-Dec-11 07:58N 34°15' W 119°16'0 0.0
2017-Dec-11 07:28N 34°15' W 119°16'0 0.0
2017-Dec-11 06:58N 34°15' W 119°16'0 0.0
2017-Dec-11 06:28N 34°15' W 119°16'0 0.0
2017-Dec-11 05:58N 34°15' W 119°16'0 0.0
2017-Dec-11 05:28N 34°15' W 119°16'0 0.0
2017-Dec-11 04:58N 34°15' W 119°16'0 0.0
2017-Dec-11 04:28N 34°15' W 119°16'0 0.0
2017-Dec-11 03:58N 34°15' W 119°16'0 0.0
2017-Dec-11 03:28N 34°15' W 119°16'0 0.0
2017-Dec-11 02:58N 34°15' W 119°16'0 0.0
2017-Dec-11 02:28N 34°15' W 119°16'0 0.0
2017-Dec-11 01:58N 34°15' W 119°16'0 0.0
2017-Dec-11 01:25N 34°15' W 119°16'0 0.0
2017-Dec-11 00:58N 34°15' W 119°16'3 7.1
2017-Dec-11 00:30N 34°13' W 119°19'5 9.4
2017-Dec-11 00:00N 34°10' W 119°24'5 9.0
2017-Dec-10 23:29N 34°07' W 119°28'4 8.9
2017-Dec-10 22:59N 34°04' W 119°33'2 2.5
2017-Dec-10 22:14N 34°03' W 119°34'0 0.0
2017-Dec-10 21:59N 34°03' W 119°34'0 0.0
2017-Dec-10 21:30N 34°03' W 119°34'1 3.0
2017-Dec-10 21:00N 34°03' W 119°36'0 0.1
2017-Dec-10 20:07N 34°03' W 119°36'0 0.0
2017-Dec-10 19:52N 34°03' W 119°36'0 0.0
2017-Dec-10 18:55N 34°03' W 119°36'0 0.1
2017-Dec-10 18:27N 34°03' W 119°36'0 0.3
2017-Dec-10 17:57N 34°03' W 119°36'2 4.4
2017-Dec-10 17:30N 34°04' W 119°34'5 9.7
2017-Dec-10 16:57N 34°07' W 119°28'4 9.5
2017-Dec-10 16:30N 34°09' W 119°24'5 9.2
2017-Dec-10 15:57N 34°13' W 119°19'4 8.4
2017-Dec-10 15:30N 34°15' W 119°16'0 0.6
2017-Dec-10 14:58N 34°15' W 119°16'0 0.0
2017-Dec-10 14:25N 34°15' W 119°16'0 0.0
2017-Dec-10 13:58N 34°15' W 119°16'0 0.0
2017-Dec-10 13:28N 34°15' W 119°16'0 0.0
2017-Dec-10 12:55N 34°15' W 119°16'0 0.0
2017-Dec-10 12:25N 34°15' W 119°16'0 0.0
2017-Dec-10 11:58N 34°15' W 119°16'0 0.0
2017-Dec-10 11:25N 34°15' W 119°16'0 0.0
2017-Dec-10 10:52N 34°15' W 119°16'0 0.0
2017-Dec-10 10:28N 34°15' W 119°16'0 0.0
2017-Dec-10 09:55N 34°15' W 119°16'0 0.0
2017-Dec-10 09:28N 34°15' W 119°16'0 0.0
2017-Dec-10 08:58N 34°15' W 119°16'0 0.0
2017-Dec-10 08:28N 34°15' W 119°16'0 0.0
2017-Dec-10 07:58N 34°15' W 119°16'0 0.0
2017-Dec-10 07:28N 34°15' W 119°16'0 0.0
2017-Dec-10 06:52N 34°15' W 119°16'0 0.0
2017-Dec-10 06:28N 34°15' W 119°16'0 0.0
2017-Dec-10 05:58N 34°15' W 119°16'0 0.0
2017-Dec-10 05:28N 34°15' W 119°16'0 0.0
2017-Dec-10 04:58N 34°15' W 119°16'0 0.0
2017-Dec-10 04:28N 34°15' W 119°16'0 0.0
2017-Dec-10 03:58N 34°15' W 119°16'0 0.0
2017-Dec-10 03:28N 34°15' W 119°16'0 0.0
2017-Dec-10 02:58N 34°15' W 119°16'0 0.0
2017-Dec-10 02:28N 34°15' W 119°16'0 0.0
2017-Dec-10 02:00N 34°15' W 119°16'3 6.6
2017-Dec-10 01:28N 34°13' W 119°19'4 9.2
2017-Dec-10 00:59N 34°10' W 119°23'5 9.4
2017-Dec-10 00:29N 34°06' W 119°27'6 4.2
2017-Dec-09 23:09N 34°03' W 119°33'0 0.0
2017-Dec-09 22:57N 34°03' W 119°33'0 0.0
2017-Dec-09 22:17N 34°03' W 119°33'2 0.3
2017-Dec-09 17:05N 34°02' W 119°31'2 9.1
2017-Dec-09 16:52N 34°04' W 119°30'4 9.1
2017-Dec-09 16:28N 34°06' W 119°27'4 9.4
2017-Dec-09 16:00N 34°10' W 119°24'6 9.5
2017-Dec-09 15:21N 34°14' W 119°18'2 2.7
2017-Dec-09 14:40N 34°15' W 119°16'0 0.0
2017-Dec-09 14:25N 34°15' W 119°16'0 0.0
2017-Dec-09 13:34N 34°15' W 119°16'0 0.0
2017-Dec-09 13:19N 34°15' W 119°16'0 0.0
2017-Dec-09 12:55N 34°15' W 119°16'0 0.0
2017-Dec-09 12:25N 34°15' W 119°16'0 0.0
2017-Dec-09 11:55N 34°15' W 119°16'0 0.0
2017-Dec-09 11:25N 34°15' W 119°16'0 0.0
2017-Dec-09 10:58N 34°15' W 119°16'0 0.0
2017-Dec-09 10:25N 34°15' W 119°16'0 0.0
2017-Dec-09 09:58N 34°15' W 119°16'0 0.0
2017-Dec-09 09:25N 34°15' W 119°16'0 0.0
2017-Dec-09 07:31N 34°15' W 119°16'0 0.0
2017-Dec-09 07:01N 34°15' W 119°16'0 0.0
2017-Dec-09 06:52N 34°15' W 119°16'0 0.0
2017-Dec-09 06:01N 34°15' W 119°16'0 0.0
2017-Dec-09 05:49N 34°15' W 119°16'0 0.0
2017-Dec-09 04:52N 34°15' W 119°16'0 0.0
2017-Dec-09 04:22N 34°15' W 119°16'0 0.0
2017-Dec-09 03:55N 34°15' W 119°16'0 0.0
2017-Dec-09 03:04N 34°15' W 119°16'0 0.0
2017-Dec-09 02:55N 34°15' W 119°16'0 0.0
2017-Dec-09 02:28N 34°15' W 119°16'0 0.0
2017-Dec-09 01:46N 34°15' W 119°16'0 0.0
2017-Dec-09 01:22N 34°15' W 119°16'0 0.0
2017-Dec-09 00:58N 34°15' W 119°16'0 0.0
2017-Dec-09 00:22N 34°15' W 119°16'0 0.0
2017-Dec-08 23:58N 34°15' W 119°16'0 0.0
2017-Dec-08 23:25N 34°15' W 119°16'0 0.0
2017-Dec-08 22:58N 34°15' W 119°16'0 0.0
2017-Dec-08 22:28N 34°15' W 119°16'0 0.0
2017-Dec-08 21:58N 34°15' W 119°16'0 0.0
2017-Dec-08 21:28N 34°15' W 119°16'0 0.0
2017-Dec-08 20:55N 34°15' W 119°16'0 0.0
2017-Dec-08 20:25N 34°15' W 119°16'0 0.0
2017-Dec-08 19:58N 34°15' W 119°16'0 0.0
2017-Dec-08 19:28N 34°15' W 119°16'0 0.0
2017-Dec-08 18:46N 34°15' W 119°16'0 0.0
2017-Dec-08 18:28N 34°15' W 119°16'0 0.0
2017-Dec-08 17:58N 34°15' W 119°16'0 0.0
2017-Dec-08 16:52N 34°15' W 119°16'0 0.0
2017-Dec-08 16:28N 34°15' W 119°16'0 0.0
2017-Dec-08 15:52N 34°15' W 119°16'0 0.0
2017-Dec-08 15:28N 34°15' W 119°16'0 0.0
2017-Dec-08 14:49N 34°15' W 119°16'0 0.0
2017-Dec-08 14:13N 34°15' W 119°16'0 0.0
2017-Dec-08 13:58N 34°15' W 119°16'0 0.0
2017-Dec-08 13:25N 34°15' W 119°16'0 0.0
2017-Dec-08 12:55N 34°15' W 119°16'0 0.0
2017-Dec-08 12:13N 34°15' W 119°16'0 0.0
2017-Dec-08 11:49N 34°15' W 119°16'0 0.0
2017-Dec-08 11:25N 34°15' W 119°16'0 0.0
2017-Dec-08 10:55N 34°15' W 119°16'0 0.0
2017-Dec-08 10:19N 34°15' W 119°16'0 0.0
2017-Dec-08 09:58N 34°15' W 119°16'0 0.0
2017-Dec-08 09:28N 34°15' W 119°16'0 0.0
2017-Dec-08 08:55N 34°15' W 119°16'0 0.0
2017-Dec-08 08:28N 34°15' W 119°16'0 0.0
2017-Dec-08 07:58N 34°15' W 119°16'0 0.0
2017-Dec-08 07:28N 34°15' W 119°16'0 0.0
2017-Dec-08 06:58N 34°15' W 119°16'0 0.0
2017-Dec-08 06:28N 34°15' W 119°16'0 0.0
2017-Dec-08 05:58N 34°15' W 119°16'0 0.0
2017-Dec-08 05:22N 34°15' W 119°16'0 0.0
2017-Dec-08 04:52N 34°15' W 119°16'0 0.0
2017-Dec-08 04:25N 34°15' W 119°16'0 0.0
2017-Dec-08 03:58N 34°15' W 119°16'0 0.0
2017-Dec-08 03:19N 34°15' W 119°16'0 0.0
2017-Dec-08 02:58N 34°15' W 119°16'0 0.0
2017-Dec-08 02:25N 34°15' W 119°16'0 0.0
2017-Dec-08 01:55N 34°15' W 119°16'0 0.0
2017-Dec-08 01:28N 34°15' W 119°16'0 0.0
2017-Dec-08 00:55N 34°15' W 119°16'0 0.0
2017-Dec-08 00:22N 34°15' W 119°16'0 0.0
2017-Dec-07 23:58N 34°15' W 119°16'0 0.0
2017-Dec-07 23:10N 34°15' W 119°16'0 0.0
2017-Dec-07 21:52N 34°15' W 119°16'0 0.0
2017-Dec-07 21:28N 34°15' W 119°16'0 0.0
2017-Dec-07 20:58N 34°15' W 119°16'0 0.0
2017-Dec-07 20:19N 34°15' W 119°16'0 0.0
2017-Dec-07 19:52N 34°15' W 119°16'0 0.0
2017-Dec-07 19:28N 34°15' W 119°16'0 0.0
2017-Dec-07 18:58N 34°15' W 119°16'0 0.0
2017-Dec-07 18:28N 34°15' W 119°16'0 0.0
2017-Dec-07 17:52N 34°15' W 119°16'0 0.0
2017-Dec-07 17:28N 34°15' W 119°16'0 0.0
2017-Dec-07 16:55N 34°15' W 119°16'0 0.0
2017-Dec-07 16:28N 34°15' W 119°16'0 0.0
2017-Dec-07 15:58N 34°15' W 119°16'0 0.0
2017-Dec-07 15:28N 34°15' W 119°16'0 0.0
2017-Dec-07 14:58N 34°15' W 119°16'0 0.0
2017-Dec-07 14:28N 34°15' W 119°16'0 0.0
2017-Dec-07 13:58N 34°15' W 119°16'0 0.0
2017-Dec-07 13:28N 34°15' W 119°16'0 0.0
2017-Dec-07 12:58N 34°15' W 119°16'0 0.0
2017-Dec-07 12:28N 34°15' W 119°16'0 0.0
2017-Dec-07 11:58N 34°15' W 119°16'0 0.0
2017-Dec-07 11:25N 34°15' W 119°16'0 0.0
2017-Dec-07 10:58N 34°15' W 119°16'0 0.0
2017-Dec-07 10:28N 34°15' W 119°16'0 0.0
2017-Dec-07 09:55N 34°15' W 119°16'0 0.0
2017-Dec-07 09:28N 34°15' W 119°16'0 0.0
2017-Dec-07 08:55N 34°15' W 119°16'0 0.0
2017-Dec-07 08:25N 34°15' W 119°16'0 0.0
2017-Dec-07 07:58N 34°15' W 119°16'0 0.0
2017-Dec-07 07:28N 34°15' W 119°16'0 0.0
2017-Dec-07 06:52N 34°15' W 119°16'0 0.0
2017-Dec-07 06:25N 34°15' W 119°16'0 0.0
2017-Dec-07 05:55N 34°15' W 119°16'0 0.0
2017-Dec-07 05:28N 34°15' W 119°16'0 0.0
2017-Dec-07 04:55N 34°15' W 119°16'0 0.0
2017-Dec-07 04:16N 34°15' W 119°16'0 0.0
2017-Dec-07 03:58N 34°15' W 119°16'0 0.0
2017-Dec-07 03:22N 34°15' W 119°16'0 0.0
2017-Dec-07 02:58N 34°15' W 119°16'0 0.0
2017-Dec-07 02:28N 34°15' W 119°16'0 0.0
2017-Dec-07 01:58N 34°15' W 119°16'0 0.0
2017-Dec-07 01:25N 34°15' W 119°16'0 0.0
2017-Dec-07 00:55N 34°15' W 119°16'0 0.0
2017-Dec-07 00:28N 34°15' W 119°16'0 0.0
2017-Dec-06 23:55N 34°15' W 119°16'0 0.0
2017-Dec-06 23:28N 34°15' W 119°16'0 0.0
2017-Dec-06 22:55N 34°15' W 119°16'0 0.0
2017-Dec-06 22:25N 34°15' W 119°16'0 0.0
2017-Dec-06 20:42N 34°15' W 119°16'  
2017-Dec-04 08:54N 34°15' W 119°16'0 0.0
2017-Dec-04 08:30N 34°15' W 119°16'0 0.0
2017-Dec-04 08:00N 34°15' W 119°16'0 0.0
2017-Dec-04 07:21N 34°15' W 119°16'0 0.0
2017-Dec-04 07:00N 34°15' W 119°16'0 0.0
2017-Dec-04 05:24N 34°15' W 119°16'0 0.0
2017-Dec-04 04:51N 34°15' W 119°16'0 0.0
2017-Dec-04 04:30N 34°15' W 119°16'0 0.0
2017-Dec-04 03:57N 34°15' W 119°16'0 0.0
2017-Dec-04 03:24N 34°15' W 119°16'0 0.0
2017-Dec-04 03:00N 34°15' W 119°16'0 0.0
2017-Dec-04 02:30N 34°15' W 119°16'4 5.8
2017-Dec-04 01:48N 34°11' W 119°16'4 9.2
2017-Dec-04 01:20N 34°06' W 119°16'3 8.9
2017-Dec-04 01:00N 34°03' W 119°15'4 9.1
2017-Dec-04 00:30N 33°59' W 119°13'5 9.6
2017-Dec-03 23:59N 33°54' W 119°12'5 9.8
2017-Dec-03 23:30N 33°50' W 119°10'5 9.7
2017-Dec-03 23:00N 33°45' W 119°08'5 9.4
2017-Dec-03 22:30N 33°41' W 119°07'5 9.3
2017-Dec-03 22:00N 33°36' W 119°05'6 9.0
2017-Dec-03 21:20N 33°31' W 119°03'1 2.8
2017-Dec-03 20:56N 33°29' W 119°03'0 0.0
2017-Dec-03 20:30N 33°29' W 119°03'1 0.6
2017-Dec-03 18:04N 33°29' W 119°04'1 0.5
2017-Dec-03 16:13N 33°30' W 119°04'2 0.1
2017-Dec-03 00:54N 33°29' W 119°02'1 2.2
2017-Dec-03 00:29N 33°30' W 119°03'0 0.0
2017-Dec-02 23:57N 33°30' W 119°03'4 0.4
2017-Dec-02 14:50N 33°34' W 119°04'3 9.1
2017-Dec-02 14:30N 33°36' W 119°05'5 9.1
2017-Dec-02 14:00N 33°41' W 119°06'5 8.9
2017-Dec-02 13:27N 33°45' W 119°08'4 9.1
2017-Dec-02 12:59N 33°49' W 119°10'5 9.1
2017-Dec-02 12:29N 33°54' W 119°12'4 8.9
2017-Dec-02 12:00N 33°58' W 119°13'5 9.0
2017-Dec-02 11:29N 34°02' W 119°15'5 9.3
2017-Dec-02 11:00N 34°07' W 119°16'7 9.5
2017-Dec-02 10:18N 34°13' W 119°17'1 4.5
2017-Dec-02 09:59N 34°15' W 119°16'0 0.0
2017-Dec-02 09:29N 34°15' W 119°16'0 0.0
2017-Dec-02 08:59N 34°15' W 119°16'0 0.0
2017-Dec-02 07:56N 34°15' W 119°16'0 0.0
2017-Dec-02 07:08N 34°15' W 119°16'0 0.0
2017-Dec-02 06:59N 34°15' W 119°16'0 0.0
2017-Dec-02 04:20N 34°15' W 119°16'0 0.0
2017-Dec-02 03:56N 34°15' W 119°16'0 0.0
2017-Dec-02 03:26N 34°15' W 119°16'0 0.0
2017-Dec-02 02:41N 34°15' W 119°16'0 0.0
2017-Dec-02 02:23N 34°15' W 119°16'0 0.0
2017-Dec-02 01:32N 34°15' W 119°16'0 0.0
2017-Dec-02 01:26N 34°15' W 119°16'0 0.0
2017-Dec-01 22:53N 34°15' W 119°16'0 0.0
2017-Dec-01 22:29N 34°15' W 119°16'0 0.0
2017-Dec-01 21:59N 34°15' W 119°16'0 0.0
2017-Dec-01 21:29N 34°15' W 119°16'0 0.0
2017-Dec-01 20:59N 34°15' W 119°16'0 0.0
2017-Dec-01 20:29N 34°15' W 119°16'0 0.0
2017-Dec-01 19:56N 34°15' W 119°16'0 0.0
2017-Dec-01 19:23N 34°15' W 119°16'0 0.0
2017-Dec-01 18:11N 34°15' W 119°16'0 0.0
2017-Dec-01 17:59N 34°15' W 119°16'0 0.0
2017-Dec-01 17:29N 34°15' W 119°16'  
Track history (hours):
 
Tides and Currents Weather Stations Pressure Air Temp Water Temp Dewpoint Dewpoint Depression Visibility Wind Speed Wind Dir Waves Ship Positions

Peace

Owner: BOWMAN, ERIC L, VENTURA, CA. More information available from US FCC via Universal Licensing System and Coast Guard Vessel Documentation Center.

Last reported at 2017-Dec-11 16:59 UTC. Time now 2017-Dec-14 02:41 UTC.
Position N 34°00' W 119°26'.

Length 20 m.

Type: Diving. MMSI: 367166830.

Date/timePositionNaut miles runAvg speedWind from/ knotsBaromVisibWave heightAir tempDewpointWater temp
2017-Dec-11 16:59N 34°00' W 119°26'3 6.9
2017-Dec-11 16:30N 34°04' W 119°25'5 9.5
2017-Dec-11 16:00N 34°08' W 119°22'5 9.3
2017-Dec-11 15:29N 34°12' W 119°19'4 8.3
2017-Dec-11 15:00N 34°15' W 119°16'0 0.5
2017-Dec-11 14:25N 34°15' W 119°16'0 0.0
2017-Dec-11 13:58N 34°15' W 119°16'0 0.0
2017-Dec-11 13:28N 34°15' W 119°16'0 0.0
2017-Dec-11 12:58N 34°15' W 119°16'0 0.0
2017-Dec-11 12:28N 34°15' W 119°16'0 0.0
2017-Dec-11 11:58N 34°15' W 119°16'0 0.0
2017-Dec-11 11:28N 34°15' W 119°16'0 0.0
2017-Dec-11 10:58N 34°15' W 119°16'0 0.0
2017-Dec-11 10:28N 34°15' W 119°16'0 0.0
2017-Dec-11 09:58N 34°15' W 119°16'0 0.0
2017-Dec-11 09:28N 34°15' W 119°16'0 0.0
2017-Dec-11 08:58N 34°15' W 119°16'0 0.0
2017-Dec-11 08:28N 34°15' W 119°16'0 0.0
2017-Dec-11 07:58N 34°15' W 119°16'0 0.0
2017-Dec-11 07:28N 34°15' W 119°16'0 0.0
2017-Dec-11 06:58N 34°15' W 119°16'0 0.0
2017-Dec-11 06:28N 34°15' W 119°16'0 0.0
2017-Dec-11 05:58N 34°15' W 119°16'0 0.0
2017-Dec-11 05:28N 34°15' W 119°16'0 0.0
2017-Dec-11 04:58N 34°15' W 119°16'0 0.0
2017-Dec-11 04:28N 34°15' W 119°16'0 0.0
2017-Dec-11 03:58N 34°15' W 119°16'0 0.0
2017-Dec-11 03:28N 34°15' W 119°16'0 0.0
2017-Dec-11 02:58N 34°15' W 119°16'0 0.0
2017-Dec-11 02:28N 34°15' W 119°16'0 0.0
2017-Dec-11 01:58N 34°15' W 119°16'0 0.0
2017-Dec-11 01:25N 34°15' W 119°16'0 0.0
2017-Dec-11 00:58N 34°15' W 119°16'3 7.1
2017-Dec-11 00:30N 34°13' W 119°19'5 9.4
2017-Dec-11 00:00N 34°10' W 119°24'5 9.0
2017-Dec-10 23:29N 34°07' W 119°28'4 8.9
2017-Dec-10 22:59N 34°04' W 119°33'2 2.5
2017-Dec-10 22:14N 34°03' W 119°34'0 0.0
2017-Dec-10 21:59N 34°03' W 119°34'0 0.0
2017-Dec-10 21:30N 34°03' W 119°34'1 3.0
2017-Dec-10 21:00N 34°03' W 119°36'0 0.1
2017-Dec-10 20:07N 34°03' W 119°36'0 0.0
2017-Dec-10 19:52N 34°03' W 119°36'0 0.0
2017-Dec-10 18:55N 34°03' W 119°36'0 0.1
2017-Dec-10 18:27N 34°03' W 119°36'0 0.3
2017-Dec-10 17:57N 34°03' W 119°36'2 4.4
2017-Dec-10 17:30N 34°04' W 119°34'5 9.7
2017-Dec-10 16:57N 34°07' W 119°28'4 9.5
2017-Dec-10 16:30N 34°09' W 119°24'5 9.2
2017-Dec-10 15:57N 34°13' W 119°19'4 8.4
2017-Dec-10 15:30N 34°15' W 119°16'0 0.6
2017-Dec-10 14:58N 34°15' W 119°16'0 0.0
2017-Dec-10 14:25N 34°15' W 119°16'0 0.0
2017-Dec-10 13:58N 34°15' W 119°16'0 0.0
2017-Dec-10 13:28N 34°15' W 119°16'0 0.0
2017-Dec-10 12:55N 34°15' W 119°16'0 0.0
2017-Dec-10 12:25N 34°15' W 119°16'0 0.0
2017-Dec-10 11:58N 34°15' W 119°16'0 0.0
2017-Dec-10 11:25N 34°15' W 119°16'0 0.0
2017-Dec-10 10:52N 34°15' W 119°16'0 0.0
2017-Dec-10 10:28N 34°15' W 119°16'0 0.0
2017-Dec-10 09:55N 34°15' W 119°16'0 0.0
2017-Dec-10 09:28N 34°15' W 119°16'0 0.0
2017-Dec-10 08:58N 34°15' W 119°16'0 0.0
2017-Dec-10 08:28N 34°15' W 119°16'0 0.0
2017-Dec-10 07:58N 34°15' W 119°16'0 0.0
2017-Dec-10 07:28N 34°15' W 119°16'0 0.0
2017-Dec-10 06:52N 34°15' W 119°16'0 0.0
2017-Dec-10 06:28N 34°15' W 119°16'0 0.0
2017-Dec-10 05:58N 34°15' W 119°16'0 0.0
2017-Dec-10 05:28N 34°15' W 119°16'0 0.0
2017-Dec-10 04:58N 34°15' W 119°16'0 0.0
2017-Dec-10 04:28N 34°15' W 119°16'0 0.0
2017-Dec-10 03:58N 34°15' W 119°16'0 0.0
2017-Dec-10 03:28N 34°15' W 119°16'0 0.0
2017-Dec-10 02:58N 34°15' W 119°16'0 0.0
2017-Dec-10 02:28N 34°15' W 119°16'0 0.0
2017-Dec-10 02:00N 34°15' W 119°16'3 6.6
2017-Dec-10 01:28N 34°13' W 119°19'4 9.2
2017-Dec-10 00:59N 34°10' W 119°23'5 9.4
2017-Dec-10 00:29N 34°06' W 119°27'6 4.2
2017-Dec-09 23:09N 34°03' W 119°33'0 0.0
2017-Dec-09 22:57N 34°03' W 119°33'0 0.0
2017-Dec-09 22:17N 34°03' W 119°33'2 0.3
2017-Dec-09 17:05N 34°02' W 119°31'2 9.1
2017-Dec-09 16:52N 34°04' W 119°30'4 9.1
2017-Dec-09 16:28N 34°06' W 119°27'4 9.4
2017-Dec-09 16:00N 34°10' W 119°24'6 9.5
2017-Dec-09 15:21N 34°14' W 119°18'2 2.7
2017-Dec-09 14:40N 34°15' W 119°16'0 0.0
2017-Dec-09 14:25N 34°15' W 119°16'0 0.0
2017-Dec-09 13:34N 34°15' W 119°16'0 0.0
2017-Dec-09 13:19N 34°15' W 119°16'0 0.0
2017-Dec-09 12:55N 34°15' W 119°16'0 0.0
2017-Dec-09 12:25N 34°15' W 119°16'0 0.0
2017-Dec-09 11:55N 34°15' W 119°16'0 0.0
2017-Dec-09 11:25N 34°15' W 119°16'0 0.0
2017-Dec-09 10:58N 34°15' W 119°16'0 0.0
2017-Dec-09 10:25N 34°15' W 119°16'0 0.0
2017-Dec-09 09:58N 34°15' W 119°16'0 0.0
2017-Dec-09 09:25N 34°15' W 119°16'0 0.0
2017-Dec-09 07:31N 34°15' W 119°16'0 0.0
2017-Dec-09 07:01N 34°15' W 119°16'0 0.0
2017-Dec-09 06:52N 34°15' W 119°16'0 0.0
2017-Dec-09 06:01N 34°15' W 119°16'0 0.0
2017-Dec-09 05:49N 34°15' W 119°16'0 0.0
2017-Dec-09 04:52N 34°15' W 119°16'0 0.0
2017-Dec-09 04:22N 34°15' W 119°16'0 0.0
2017-Dec-09 03:55N 34°15' W 119°16'0 0.0
2017-Dec-09 03:04N 34°15' W 119°16'0 0.0
2017-Dec-09 02:55N 34°15' W 119°16'0 0.0
2017-Dec-09 02:28N 34°15' W 119°16'0 0.0
2017-Dec-09 01:46N 34°15' W 119°16'0 0.0
2017-Dec-09 01:22N 34°15' W 119°16'0 0.0
2017-Dec-09 00:58N 34°15' W 119°16'0 0.0
2017-Dec-09 00:22N 34°15' W 119°16'0 0.0
2017-Dec-08 23:58N 34°15' W 119°16'0 0.0
2017-Dec-08 23:25N 34°15' W 119°16'0 0.0
2017-Dec-08 22:58N 34°15' W 119°16'0 0.0
2017-Dec-08 22:28N 34°15' W 119°16'0 0.0
2017-Dec-08 21:58N 34°15' W 119°16'0 0.0
2017-Dec-08 21:28N 34°15' W 119°16'0 0.0
2017-Dec-08 20:55N 34°15' W 119°16'0 0.0
2017-Dec-08 20:25N 34°15' W 119°16'0 0.0
2017-Dec-08 19:58N 34°15' W 119°16'0 0.0
2017-Dec-08 19:28N 34°15' W 119°16'0 0.0
2017-Dec-08 18:46N 34°15' W 119°16'0 0.0
2017-Dec-08 18:28N 34°15' W 119°16'0 0.0
2017-Dec-08 17:58N 34°15' W 119°16'0 0.0
2017-Dec-08 16:52N 34°15' W 119°16'0 0.0
2017-Dec-08 16:28N 34°15' W 119°16'0 0.0
2017-Dec-08 15:52N 34°15' W 119°16'0 0.0
2017-Dec-08 15:28N 34°15' W 119°16'0 0.0
2017-Dec-08 14:49N 34°15' W 119°16'0 0.0
2017-Dec-08 14:13N 34°15' W 119°16'0 0.0
2017-Dec-08 13:58N 34°15' W 119°16'0 0.0
2017-Dec-08 13:25N 34°15' W 119°16'0 0.0
2017-Dec-08 12:55N 34°15' W 119°16'0 0.0
2017-Dec-08 12:13N 34°15' W 119°16'0 0.0
2017-Dec-08 11:49N 34°15' W 119°16'0 0.0
2017-Dec-08 11:25N 34°15' W 119°16'0 0.0
2017-Dec-08 10:55N 34°15' W 119°16'0 0.0
2017-Dec-08 10:19N 34°15' W 119°16'0 0.0
2017-Dec-08 09:58N 34°15' W 119°16'0 0.0
2017-Dec-08 09:28N 34°15' W 119°16'0 0.0
2017-Dec-08 08:55N 34°15' W 119°16'0 0.0
2017-Dec-08 08:28N 34°15' W 119°16'0 0.0
2017-Dec-08 07:58N 34°15' W 119°16'0 0.0
2017-Dec-08 07:28N 34°15' W 119°16'0 0.0
2017-Dec-08 06:58N 34°15' W 119°16'0 0.0
2017-Dec-08 06:28N 34°15' W 119°16'0 0.0
2017-Dec-08 05:58N 34°15' W 119°16'0 0.0
2017-Dec-08 05:22N 34°15' W 119°16'0 0.0
2017-Dec-08 04:52N 34°15' W 119°16'0 0.0
2017-Dec-08 04:25N 34°15' W 119°16'0 0.0
2017-Dec-08 03:58N 34°15' W 119°16'0 0.0
2017-Dec-08 03:19N 34°15' W 119°16'0 0.0
2017-Dec-08 02:58N 34°15' W 119°16'0 0.0
2017-Dec-08 02:25N 34°15' W 119°16'0 0.0
2017-Dec-08 01:55N 34°15' W 119°16'0 0.0
2017-Dec-08 01:28N 34°15' W 119°16'0 0.0
2017-Dec-08 00:55N 34°15' W 119°16'0 0.0
2017-Dec-08 00:22N 34°15' W 119°16'0 0.0
2017-Dec-07 23:58N 34°15' W 119°16'0 0.0
2017-Dec-07 23:10N 34°15' W 119°16'0 0.0
2017-Dec-07 21:52N 34°15' W 119°16'0 0.0
2017-Dec-07 21:28N 34°15' W 119°16'0 0.0
2017-Dec-07 20:58N 34°15' W 119°16'0 0.0
2017-Dec-07 20:19N 34°15' W 119°16'0 0.0
2017-Dec-07 19:52N 34°15' W 119°16'0 0.0
2017-Dec-07 19:28N 34°15' W 119°16'0 0.0
2017-Dec-07 18:58N 34°15' W 119°16'0 0.0
2017-Dec-07 18:28N 34°15' W 119°16'0 0.0
2017-Dec-07 17:52N 34°15' W 119°16'0 0.0
2017-Dec-07 17:28N 34°15' W 119°16'0 0.0
2017-Dec-07 16:55N 34°15' W 119°16'0 0.0
2017-Dec-07 16:28N 34°15' W 119°16'0 0.0
2017-Dec-07 15:58N 34°15' W 119°16'0 0.0
2017-Dec-07 15:28N 34°15' W 119°16'0 0.0
2017-Dec-07 14:58N 34°15' W 119°16'0 0.0
2017-Dec-07 14:28N 34°15' W 119°16'0 0.0
2017-Dec-07 13:58N 34°15' W 119°16'0 0.0
2017-Dec-07 13:28N 34°15' W 119°16'0 0.0
2017-Dec-07 12:58N 34°15' W 119°16'0 0.0
2017-Dec-07 12:28N 34°15' W 119°16'0 0.0
2017-Dec-07 11:58N 34°15' W 119°16'0 0.0
2017-Dec-07 11:25N 34°15' W 119°16'0 0.0
2017-Dec-07 10:58N 34°15' W 119°16'0 0.0
2017-Dec-07 10:28N 34°15' W 119°16'0 0.0
2017-Dec-07 09:55N 34°15' W 119°16'0 0.0
2017-Dec-07 09:28N 34°15' W 119°16'0 0.0
2017-Dec-07 08:55N 34°15' W 119°16'0 0.0
2017-Dec-07 08:25N 34°15' W 119°16'0 0.0
2017-Dec-07 07:58N 34°15' W 119°16'0 0.0
2017-Dec-07 07:28N 34°15' W 119°16'0 0.0
2017-Dec-07 06:52N 34°15' W 119°16'0 0.0
2017-Dec-07 06:25N 34°15' W 119°16'0 0.0
2017-Dec-07 05:55N 34°15' W 119°16'0 0.0
2017-Dec-07 05:28N 34°15' W 119°16'0 0.0
2017-Dec-07 04:55N 34°15' W 119°16'0 0.0
2017-Dec-07 04:16N 34°15' W 119°16'0 0.0
2017-Dec-07 03:58N 34°15' W 119°16'0 0.0
2017-Dec-07 03:22N 34°15' W 119°16'0 0.0
2017-Dec-07 02:58N 34°15' W 119°16'0 0.0
2017-Dec-07 02:28N 34°15' W 119°16'0 0.0
2017-Dec-07 01:58N 34°15' W 119°16'0 0.0
2017-Dec-07 01:25N 34°15' W 119°16'0 0.0
2017-Dec-07 00:55N 34°15' W 119°16'0 0.0
2017-Dec-07 00:28N 34°15' W 119°16'0 0.0
2017-Dec-06 23:55N 34°15' W 119°16'0 0.0
2017-Dec-06 23:28N 34°15' W 119°16'0 0.0
2017-Dec-06 22:55N 34°15' W 119°16'0 0.0
2017-Dec-06 22:25N 34°15' W 119°16'0 0.0
2017-Dec-06 20:42N 34°15' W 119°16'  
2017-Dec-04 08:54N 34°15' W 119°16'0 0.0
2017-Dec-04 08:30N 34°15' W 119°16'0 0.0
2017-Dec-04 08:00N 34°15' W 119°16'0 0.0
2017-Dec-04 07:21N 34°15' W 119°16'0 0.0
2017-Dec-04 07:00N 34°15' W 119°16'0 0.0
2017-Dec-04 05:24N 34°15' W 119°16'0 0.0
2017-Dec-04 04:51N 34°15' W 119°16'0 0.0
2017-Dec-04 04:30N 34°15' W 119°16'0 0.0
2017-Dec-04 03:57N 34°15' W 119°16'0 0.0
2017-Dec-04 03:24N 34°15' W 119°16'0 0.0
2017-Dec-04 03:00N 34°15' W 119°16'0 0.0
2017-Dec-04 02:30N 34°15' W 119°16'4 5.8
2017-Dec-04 01:48N 34°11' W 119°16'4 9.2
2017-Dec-04 01:20N 34°06' W 119°16'3 8.9
2017-Dec-04 01:00N 34°03' W 119°15'4 9.1
2017-Dec-04 00:30N 33°59' W 119°13'5 9.6
2017-Dec-03 23:59N 33°54' W 119°12'5 9.8
2017-Dec-03 23:30N 33°50' W 119°10'5 9.7
2017-Dec-03 23:00N 33°45' W 119°08'5 9.4
2017-Dec-03 22:30N 33°41' W 119°07'5 9.3
2017-Dec-03 22:00N 33°36' W 119°05'6 9.0
2017-Dec-03 21:20N 33°31' W 119°03'1 2.8
2017-Dec-03 20:56N 33°29' W 119°03'0 0.0
2017-Dec-03 20:30N 33°29' W 119°03'1 0.6
2017-Dec-03 18:04N 33°29' W 119°04'1 0.5
2017-Dec-03 16:13N 33°30' W 119°04'2 0.1
2017-Dec-03 00:54N 33°29' W 119°02'1 2.2
2017-Dec-03 00:29N 33°30' W 119°03'0 0.0
2017-Dec-02 23:57N 33°30' W 119°03'4 0.4
2017-Dec-02 14:50N 33°34' W 119°04'3 9.1
2017-Dec-02 14:30N 33°36' W 119°05'5 9.1
2017-Dec-02 14:00N 33°41' W 119°06'5 8.9
2017-Dec-02 13:27N 33°45' W 119°08'4 9.1
2017-Dec-02 12:59N 33°49' W 119°10'5 9.1
2017-Dec-02 12:29N 33°54' W 119°12'4 8.9
2017-Dec-02 12:00N 33°58' W 119°13'5 9.0
2017-Dec-02 11:29N 34°02' W 119°15'5 9.3
2017-Dec-02 11:00N 34°07' W 119°16'7 9.5
2017-Dec-02 10:18N 34°13' W 119°17'1 4.5
2017-Dec-02 09:59N 34°15' W 119°16'0 0.0
2017-Dec-02 09:29N 34°15' W 119°16'0 0.0
2017-Dec-02 08:59N 34°15' W 119°16'0 0.0
2017-Dec-02 07:56N 34°15' W 119°16'0 0.0
2017-Dec-02 07:08N 34°15' W 119°16'0 0.0
2017-Dec-02 06:59N 34°15' W 119°16'0 0.0
2017-Dec-02 04:20N 34°15' W 119°16'0 0.0
2017-Dec-02 03:56N 34°15' W 119°16'0 0.0
2017-Dec-02 03:26N 34°15' W 119°16'0 0.0
2017-Dec-02 02:41N 34°15' W 119°16'0 0.0
2017-Dec-02 02:23N 34°15' W 119°16'0 0.0
2017-Dec-02 01:32N 34°15' W 119°16'0 0.0
2017-Dec-02 01:26N 34°15' W 119°16'0 0.0
2017-Dec-01 22:53N 34°15' W 119°16'0 0.0
2017-Dec-01 22:29N 34°15' W 119°16'0 0.0
2017-Dec-01 21:59N 34°15' W 119°16'0 0.0
2017-Dec-01 21:29N 34°15' W 119°16'0 0.0
2017-Dec-01 20:59N 34°15' W 119°16'0 0.0
2017-Dec-01 20:29N 34°15' W 119°16'0 0.0
2017-Dec-01 19:56N 34°15' W 119°16'0 0.0
2017-Dec-01 19:23N 34°15' W 119°16'0 0.0
2017-Dec-01 18:11N 34°15' W 119°16'0 0.0
2017-Dec-01 17:59N 34°15' W 119°16'0 0.0
2017-Dec-01 17:29N 34°15' W 119°16'  

Dump ship's entire track history